Latest Weather Observations for Gooseberry Hill

IDW60801

Issued at 3:43 pm WST Friday 21 September 2018 (issued every 10 minutes, with the page automatically refreshed every 10 minutes)

About weather observations | Map of weather stations | Latest weather observations for WA | Other Formats
Station Details ID: 009204 Name: GOOSEBERRY HILL Lat: -31.94 Lon: 116.05 Height: 220.0 m
Data from the previous 72 hours. | See also: Recent months at Gooseberry Hill
Date/Time
WST
Temp
°C
App
Temp
°C
Dew
Point
°C
Rel
Hum
%
Delta-T
°C
Wind Press
QNH
hPa
Press
MSL
hPa
Rain since
9am
mm
Dir  Spd
km/h
Gust
km/h
Spd
kts
Gust
kts
21/03:30pm 21.9 18.2 11.6 52 5.8 SW 22 33 12 18 - - -
21/03:00pm 23.2 19.8 11.3 47 6.7 SW 20 32 11 17 - - -
21/02:30pm 23.3 19.7 10.4 44 7.2 WSW 20 30 11 16 - - -
21/02:00pm 24.3 23.0 9.1 38 8.3 WNW 6 15 3 8 - - -
21/01:30pm 23.4 21.9 9.0 40 7.8 W 7 13 4 7 - - -
21/01:00pm 22.9 21.5 9.7 43 7.2 WSW 7 11 4 6 - - -
21/12:30pm 22.1 20.3 10.9 49 6.2 SW 11 15 6 8 - - -
21/12:00pm 21.3 20.0 11.1 52 5.7 SW 9 15 5 8 - - -
21/11:30am 19.9 18.1 10.9 56 5.0 SW 11 15 6 8 - - -
21/11:00am 18.7 17.3 10.8 60 4.3 WSW 9 11 5 6 - - -
21/10:30am 18.0 16.4 10.1 60 4.2 SW 9 13 5 7 - - -
21/10:00am 17.1 15.3 9.5 61 4.0 S 9 15 5 8 - - -
21/09:30am 16.5 15.4 9.9 65 3.5 SE 6 9 3 5 - - -
21/09:00am 15.9 15.0 9.3 65 3.4 ENE 4 6 2 3 - - -
21/08:30am 15.9 14.4 8.6 62 3.8 ESE 6 11 3 6 - - -
21/08:00am 15.1 13.5 8.1 63 3.6 ESE 6 9 3 5 - - -
21/07:30am 14.0 12.7 7.5 65 3.2 ESE 4 9 2 5 - - -
21/07:00am 14.0 9.5 7.1 63 3.4 E 20 26 11 14 - - -
21/06:30am 13.2 9.3 7.0 66 3.0 E 17 20 9 11 - - -
21/06:00am 12.7 9.4 6.5 66 3.0 E 13 19 7 10 - - -
21/05:30am 12.9 9.2 6.5 65 3.1 E 15 17 8 9 - - -
21/05:00am 12.3 9.5 6.8 69 2.7 ESE 11 15 6 8 - - -
21/04:30am 11.5 10.3 6.4 71 2.4 SW 2 4 1 2 - - -
21/04:00am 12.2 9.7 6.7 69 2.7 SW 9 11 5 6 - - -
21/03:30am 14.1 13.2 6.2 59 3.8 CALM 0 0 0 0 - - -
21/03:00am 13.6 12.4 6.5 62 3.4 ESE 2 2 1 1 - - -
21/02:30am 13.1 11.5 6.5 64 3.2 ESE 4 4 2 2 - - -
21/02:00am 14.3 12.7 6.4 59 3.8 ESE 4 6 2 3 - - -
21/01:30am 15.3 13.8 5.0 50 4.9 SE 2 7 1 4 - - -
21/01:00am 17.2 13.4 3.8 41 6.3 SE 13 19 7 10 - - -
21/12:30am 16.5 12.6 5.2 47 5.5 SE 15 19 8 10 - - -
21/12:00am 16.2 12.9 6.3 52 4.9 SE 13 17 7 9 - - -
 
Date/Time
WST
Temp
°C
App
Temp
°C
Dew
Point
°C
Rel
Hum
%
Delta-T
°C
Wind Press
QNH
hPa
Press
MSL
hPa
Rain since
9am
mm
Dir  Spd
km/h
Gust
km/h
Spd
kts
Gust
kts
20/11:30pm 15.6 13.0 6.3 54 4.6 SSE 9 15 5 8 - - -
20/11:00pm 15.8 12.2 5.1 49 5.1 S 13 19 7 10 - - -
20/10:30pm 16.4 14.0 5.4 48 5.3 SSW 7 11 4 6 - - -
20/10:00pm 16.4 14.0 5.4 48 5.3 SSW 7 13 4 7 - - -
20/09:30pm 17.4 14.7 5.4 45 5.9 SSW 9 17 5 9 - - -
20/09:00pm 17.3 14.7 5.9 47 5.6 SSW 9 20 5 11 - - -
20/08:30pm 16.8 14.6 6.0 49 5.3 SSW 7 11 4 6 - - -
20/08:00pm 17.4 15.0 6.9 50 5.3 SSW 9 17 5 9 - - -
20/07:30pm 17.7 15.4 7.4 51 5.2 SSW 9 15 5 8 - - -
20/07:00pm 18.1 15.0 7.2 49 5.5 SW 13 20 7 11 - - -
20/06:30pm 18.9 16.0 6.4 44 6.3 SW 11 13 6 7 - - -
20/06:00pm 20.1 17.1 6.1 40 7.1 WSW 11 15 6 8 - - -
20/05:30pm 20.9 17.5 5.7 37 7.6 WSW 13 17 7 9 - - -
20/05:00pm 21.6 17.9 6.3 37 7.8 WSW 15 20 8 11 - - -
20/04:30pm 22.6 18.2 6.4 35 8.3 SW 19 26 10 14 - - -
20/04:00pm 23.3 19.1 7.4 36 8.4 SW 19 28 10 15 - - -
20/03:30pm 23.6 20.1 7.3 35 8.6 SW 15 20 8 11 - - -
20/03:00pm 24.1 21.6 8.1 36 8.6 WSW 11 20 6 11 - - -
20/02:30pm 24.9 22.8 6.6 31 9.6 NW 7 15 4 8 - - -
20/02:00pm 24.3 22.4 7.4 34 9.0 N 7 15 4 8 - - -
20/01:30pm 24.0 21.4 7.6 35 8.7 N 11 20 6 11 - - -
20/01:00pm 24.3 22.7 8.7 37 8.5 N 7 17 4 9 - - -
20/12:30pm 23.4 21.3 8.3 38 8.1 N 9 17 5 9 - - -
20/12:00pm 23.8 21.4 8.6 38 8.2 N 11 19 6 10 - - -
20/11:30am 22.4 19.3 8.9 42 7.3 NNE 15 24 8 13 - - -
20/11:00am 22.1 19.6 9.6 45 6.8 NNE 13 24 7 13 - - -
20/10:30am 20.7 17.6 8.7 46 6.4 NE 15 22 8 12 - - -
20/10:00am 19.7 16.9 10.1 54 5.2 ENE 15 19 8 10 - - -
20/09:30am 18.2 15.5 10.3 60 4.3 ENE 15 22 8 12 - - -
20/09:00am 16.4 12.5 9.6 64 3.6 ENE 20 30 11 16 - - -
20/08:30am 14.7 9.7 8.2 65 3.3 E 24 33 13 18 - - -
20/08:00am 13.5 7.7 7.9 69 2.8 E 28 37 15 20 - - -
20/07:30am 12.2 5.4 7.1 71 2.5 E 32 39 17 21 - - -
20/07:00am 11.2 5.2 6.9 75 2.1 E 28 39 15 21 - - -
20/06:30am 11.6 5.6 6.9 73 2.3 E 28 37 15 20 - - -
20/06:00am 12.8 6.7 6.6 66 3.0 E 28 35 15 19 - - -
20/05:30am 11.6 6.7 7.1 74 2.2 E 22 30 12 16 - - -
20/05:00am 11.6 6.8 7.5 76 2.0 ESE 22 28 12 15 - - -
20/04:30am 11.6 6.7 8.3 80 1.6 E 24 32 13 17 - - -
20/04:00am 11.3 5.3 8.5 83 1.4 E 30 37 16 20 - - -
20/03:30am 11.9 7.0 8.6 80 1.7 ESE 24 32 13 17 - - -
20/03:00am 12.2 8.1 8.7 79 1.8 ESE 20 30 11 16 - - -
20/02:30am 12.7 9.5 8.6 76 2.1 ESE 15 22 8 12 - - -
20/02:00am 12.9 9.1 9.0 77 2.0 ESE 19 26 10 14 - - -
20/01:30am 12.4 9.1 9.4 82 1.5 ESE 17 24 9 13 - - -
20/01:00am 12.6 9.3 9.6 82 1.5 ESE 17 20 9 11 - - -
20/12:30am 12.6 11.2 9.6 82 1.5 ESE 7 13 4 7 - - -
20/12:00am 12.2 11.4 9.6 84 1.3 SSE 4 9 2 5 - - -
 
Date/Time
WST
Temp
°C
App
Temp
°C
Dew
Point
°C
Rel
Hum
%
Delta-T
°C
Wind Press
QNH
hPa
Press
MSL
hPa
Rain since
9am
mm
Dir  Spd
km/h
Gust
km/h
Spd
kts
Gust
kts
19/11:30pm 12.0 10.7 9.9 87 1.1 SE 7 13 4 7 - - -
19/11:00pm 11.2 10.4 9.6 90 0.8 S 4 7 2 4 - - -
19/10:30pm 11.2 10.4 9.6 90 0.8 S 4 9 2 5 - - -
19/10:00pm 11.2 10.8 9.6 90 0.8 ESE 2 9 1 5 - - -
19/09:30pm 10.9 9.6 9.3 90 0.8 S 6 9 3 5 - - -
19/09:00pm 11.2 9.9 9.3 88 1.0 S 6 13 3 7 - - -
19/08:30pm 11.6 10.7 9.3 86 1.2 S 4 9 2 5 - - -
19/08:00pm 12.0 10.8 9.6 85 1.2 SSW 6 9 3 5 - - -
19/07:30pm 12.3 10.9 9.5 83 1.4 SSW 7 11 4 6 - - -
19/07:00pm 12.8 10.2 9.4 80 1.7 SW 13 20 7 11 - - -
19/06:30pm 13.3 10.0 9.7 79 1.9 SW 17 22 9 12 - - -
19/06:00pm 14.0 10.4 9.8 76 2.2 SW 19 26 10 14 - - -
19/05:30pm 14.8 11.0 9.8 72 2.6 SW 20 26 11 14 - - -
19/05:00pm 15.9 12.2 10.0 68 3.1 SW 20 30 11 16 - - -
19/04:30pm 17.1 12.9 9.8 62 3.9 SW 22 30 12 16 - - -
19/04:00pm 18.0 14.7 9.6 58 4.5 WSW 17 24 9 13 - - -
19/03:30pm 19.2 17.5 9.7 54 5.1 WSW 9 17 5 9 - - -
19/03:00pm 18.8 17.3 9.3 54 5.0 W 7 15 4 8 - - -
19/02:30pm 18.9 18.0 10.5 58 4.6 W 6 15 3 8 - - -
19/02:00pm 17.5 16.3 9.4 59 4.3 W 6 13 3 7 - - -
19/01:30pm 18.4 17.5 10.5 60 4.3 NE 6 11 3 6 - - -
19/01:00pm 17.5 17.0 10.6 64 3.7 NE 4 7 2 4 - - -
19/12:30pm 16.0 15.6 9.9 67 3.2 NE 2 7 1 4 - - -
19/12:00pm 15.3 14.0 10.1 71 2.7 E 7 13 4 7 - - -
19/11:30am 14.4 12.9 10.4 77 2.1 E 9 15 5 8 - - -
19/11:00am 12.5 10.7 9.5 82 1.5 E 9 17 5 9 - - -
19/10:30am 11.4 9.1 9.1 86 1.2 E 11 19 6 10 - - -
19/10:00am 10.3 7.5 8.7 90 0.8 E 13 20 7 11 - - -
19/09:30am 9.6 6.0 8.5 93 0.5 E 17 22 9 12 - - -
19/09:00am 9.4 5.9 8.8 96 0.3 E 17 24 9 13 - - -
19/08:30am 8.8 5.2 8.5 98 0.1 E 17 24 9 13 - - -
19/08:00am 8.5 5.3 8.4 99 0.0 E 15 20 8 11 - - -
19/07:30am 8.3 5.1 8.3 100 0.0 ESE 15 22 8 12 - - -
19/07:00am 7.9 4.2 7.8 99 0.0 ESE 17 22 9 12 - - -
19/06:30am 7.9 4.1 7.6 98 0.1 ESE 17 22 9 12 - - -
19/06:00am 8.6 6.1 8.0 96 0.3 ESE 11 19 6 10 - - -
19/05:30am 8.9 6.8 8.3 96 0.3 SE 9 17 5 9 - - -
19/05:00am 8.9 7.8 8.5 97 0.2 SSE 4 9 2 5 - - -
19/04:30am 9.0 7.9 8.6 97 0.2 SSE 4 9 2 5 - - -
19/04:00am 9.2 7.8 8.9 98 0.1 SSE 6 7 3 4 - - -
19/03:30am 9.2 7.8 8.9 98 0.1 SSE 6 7 3 4 - - -
19/03:00am 9.3 7.8 9.0 98 0.1 SSE 7 9 4 5 - - -
19/02:30am 9.5 8.1 9.0 97 0.2 SSE 6 9 3 5 - - -
19/02:00am 9.7 7.4 9.1 96 0.3 ESE 11 15 6 8 - - -
19/01:30am 9.9 8.4 9.3 96 0.3 S 7 9 4 5 - - -
19/01:00am 10.3 8.6 9.7 96 0.3 S 9 11 5 6 - - -
19/12:30am 10.3 9.1 9.7 96 0.3 S 6 7 3 4 - - -
19/12:00am 10.3 9.1 9.5 95 0.4 S 6 9 3 5 - - -
 
Date/Time
WST
Temp
°C
App
Temp
°C
Dew
Point
°C
Rel
Hum
%
Delta-T
°C
Wind Press
QNH
hPa
Press
MSL
hPa
Rain since
9am
mm
Dir  Spd
km/h
Gust
km/h
Spd
kts
Gust
kts
18/11:30pm 10.4 9.5 9.3 93 0.6 SSW 4 9 2 5 - - -
18/11:00pm 11.2 9.6 10.3 94 0.5 SSW 9 24 5 13 - - -
18/10:30pm 11.3 9.3 10.2 93 0.6 SSW 11 20 6 11 - - -
18/10:00pm 11.3 9.6 10.0 92 0.7 S 9 15 5 8 - - -
18/09:30pm 11.3 11.2 9.6 89 0.9 CALM 0 0 0 0 - - -
18/09:00pm 11.8 11.1 9.9 88 1.0 S 4 11 2 6 - - -
18/08:30pm 12.2 8.1 10.1 87 1.1 SSW 22 35 12 19 - - -
18/08:00pm 12.4 8.3 10.1 86 1.2 SSW 22 33 12 18 - - -
18/07:30pm 12.5 8.3 9.9 84 1.3 SSW 22 33 12 18 - - -
18/07:00pm 13.0 8.4 9.6 80 1.8 SSW 24 37 13 20 - - -
18/06:30pm 13.5 9.2 9.4 76 2.1 SW 22 32 12 17 - - -
18/06:00pm 14.4 10.4 9.2 71 2.7 SW 20 30 11 16 - - -
18/05:30pm 15.4 11.6 8.9 65 3.4 SW 19 32 10 17 - - -
18/05:00pm 16.1 11.9 8.3 60 4.0 SW 20 32 11 17 - - -
18/04:30pm 17.3 13.9 9.0 58 4.3 SW 17 32 9 17 - - -
18/04:00pm 17.3 13.3 8.4 56 4.6 SW 19 33 10 18 - - -

Other Formats:

Comma delimited format used in spreadsheet applications
http://www.bom.gov.au/fwo/IDW60801/IDW60801.94615.axf

JavaScript Object Notation format (JSON) in row-major order
http://www.bom.gov.au/fwo/IDW60801/IDW60801.94615.json